createdAt,value
2022-08-07T05:46:14.403Z,17568.00
2022-08-07T05:47:18.552Z,19808.00
2022-08-07T05:48:14.896Z,20704.00
2022-08-07T05:49:15.122Z,21728.00
2022-08-07T05:50:15.432Z,22368.00
2022-08-07T05:51:15.755Z,22592.00
2022-08-07T05:52:16.039Z,22400.00
2022-08-07T05:54:13.486Z,21952.00
2022-08-07T05:54:30.552Z,21408.00
2022-08-07T05:55:17.843Z,21280.00
2022-08-07T05:56:17.107Z,21408.00
2022-08-07T05:57:17.373Z,21408.00
2022-08-07T05:58:17.625Z,21568.00
2022-08-07T05:59:18.907Z,21760.00
2022-08-07T06:00:18.189Z,21792.00
2022-08-07T06:01:18.568Z,21792.00
2022-08-07T06:02:21.856Z,21984.00
2022-08-07T06:03:20.116Z,22144.00
2022-08-07T06:04:19.465Z,22080.00
2022-08-07T06:05:19.779Z,21536.00
2022-08-07T06:06:20.964Z,21440.00
2022-08-07T06:07:23.064Z,22304.00
2022-08-07T06:08:30.888Z,22784.00
2022-08-07T06:09:21.900Z,23136.00
2022-08-07T06:10:22.242Z,23296.00
2022-08-07T06:11:21.448Z,23168.00
2022-08-07T06:12:27.965Z,23168.00
2022-08-07T06:14:10.941Z,23360.00
2022-08-07T06:14:28.684Z,23616.00
2022-08-07T06:15:39.362Z,23296.00
2022-08-07T06:16:24.050Z,23456.00
2022-08-07T06:17:30.570Z,23744.00
2022-08-07T06:18:24.706Z,23904.00
2022-08-07T06:19:51.858Z,23904.00
2022-08-07T06:20:50.024Z,23776.00
2022-08-07T06:22:14.841Z,23872.00
2022-08-07T06:22:27.342Z,23936.00
2022-08-07T06:24:37.492Z,24064.00
2022-08-07T06:24:52.511Z,23904.00
2022-08-07T06:25:26.744Z,24032.00
2022-08-07T06:26:27.801Z,24064.00
2022-08-07T06:27:43.731Z,24000.00
2022-08-07T06:28:28.578Z,24032.00
2022-08-07T06:29:26.823Z,24064.00
2022-08-07T06:30:35.648Z,24096.00
2022-08-07T06:31:46.924Z,24224.00
2022-08-07T06:32:29.217Z,24384.00
2022-08-07T06:33:29.770Z,24544.00
2022-08-07T06:34:30.454Z,24672.00
2022-08-07T06:35:38.901Z,24864.00
2022-08-07T06:36:35.570Z,24896.00
2022-08-07T06:37:44.063Z,24864.00
2022-08-07T06:38:30.539Z,24800.00
2022-08-07T06:40:15.953Z,24544.00
2022-08-07T06:40:34.391Z,24640.00
2022-08-07T06:42:02.794Z,24416.00
2022-08-07T06:42:35.007Z,24000.00
2022-08-07T06:43:39.185Z,23904.00
2022-08-07T06:44:34.230Z,23744.00
2022-08-07T06:45:31.603Z,23808.00
2022-08-07T06:46:35.485Z,24544.00
2022-08-07T06:47:48.405Z,25152.00
2022-08-07T06:48:33.518Z,25312.00
2022-08-07T06:49:32.776Z,25408.00
2022-08-07T06:50:33.049Z,25504.00
2022-08-07T06:51:33.893Z,25472.00
2022-08-07T06:52:35.989Z,25440.00
2022-08-07T06:54:12.189Z,25440.00
2022-08-07T06:55:31.422Z,25440.00
2022-08-07T06:56:00.489Z,25472.00
2022-08-07T06:56:35.749Z,25504.00
2022-08-07T06:57:43.433Z,25504.00
2022-08-07T06:58:36.448Z,25536.00
2022-08-07T07:00:13.311Z,25472.00
2022-08-07T07:00:37.055Z,25504.00
2022-08-07T07:01:42.005Z,25472.00
2022-08-07T07:02:53.780Z,25536.00
2022-08-07T07:03:47.529Z,25536.00
2022-08-07T07:04:38.217Z,25536.00
2022-08-07T07:06:04.236Z,25568.00
2022-08-07T07:06:39.368Z,25568.00
2022-08-07T07:07:59.947Z,25600.00
2022-08-07T07:08:39.857Z,25632.00
2022-08-07T07:09:39.862Z,25664.00
2022-08-07T07:10:39.026Z,25728.00
2022-08-07T07:12:08.309Z,25696.00
2022-08-07T07:12:41.770Z,25664.00
2022-08-07T07:13:58.044Z,25280.00
2022-08-07T07:14:41.186Z,24064.00
2022-08-07T07:15:40.468Z,21920.00
2022-08-07T07:16:49.731Z,22112.00
2022-08-07T07:17:45.347Z,22432.00
2022-08-07T07:18:48.127Z,21888.00
2022-08-07T07:19:57.817Z,22944.00
2022-08-07T07:20:42.786Z,23680.00
2022-08-07T07:22:04.609Z,24992.00
2022-08-07T07:24:06.193Z,25504.00
2022-08-07T07:24:10.987Z,25408.00
2022-08-07T07:24:57.042Z,25312.00
2022-08-07T07:26:34.908Z,25216.00
2022-08-07T07:26:49.744Z,25184.00
2022-08-07T07:28:01.940Z,25120.00
2022-08-07T07:29:38.407Z,25120.00
2022-08-07T07:30:07.425Z,25056.00
2022-08-07T07:30:45.748Z,25088.00
2022-08-07T07:31:46.630Z,24992.00
2022-08-07T07:32:45.257Z,24864.00
2022-08-07T07:33:54.915Z,24736.00
2022-08-07T07:34:48.644Z,24736.00
2022-08-07T07:36:03.989Z,24736.00
2022-08-07T07:36:47.692Z,24640.00
2022-08-07T07:38:02.106Z,24672.00
2022-08-07T07:38:47.960Z,24672.00
2022-08-07T07:39:54.954Z,24608.00
2022-08-07T07:40:48.546Z,24608.00
2022-08-07T07:41:50.695Z,24448.00
2022-08-07T07:42:53.798Z,24288.00
2022-08-07T07:44:17.840Z,24288.00
2022-08-07T07:44:49.898Z,23872.00
2022-08-07T07:46:36.990Z,23872.00
2022-08-07T07:46:55.848Z,24160.00
2022-08-07T07:47:52.587Z,24416.00
2022-08-07T07:48:50.056Z,24448.00
2022-08-07T07:50:35.221Z,24416.00
2022-08-07T07:50:51.511Z,24416.00
2022-08-07T07:51:58.357Z,24320.00
2022-08-07T07:52:52.152Z,24320.00
2022-08-07T07:53:52.770Z,24352.00
2022-08-07T07:54:52.302Z,24448.00
2022-08-07T07:55:54.958Z,24384.00
2022-08-07T07:56:53.176Z,24480.00
2022-08-07T07:57:58.107Z,24384.00
2022-08-07T07:58:54.451Z,24352.00
2022-08-07T07:59:53.826Z,24224.00
2022-08-07T08:00:54.092Z,24192.00
2022-08-07T08:02:03.602Z,24096.00
2022-08-07T08:03:04.690Z,24128.00
2022-08-07T08:04:09.797Z,24128.00
2022-08-07T08:04:55.715Z,24128.00
2022-08-07T08:05:55.756Z,24096.00
2022-08-07T08:06:55.224Z,23968.00
2022-08-07T08:08:00.994Z,23872.00
2022-08-07T08:08:56.718Z,23968.00
2022-08-07T08:10:05.097Z,23904.00
2022-08-07T08:10:57.252Z,23776.00
2022-08-07T08:12:02.273Z,23776.00
2022-08-07T08:13:00.043Z,23776.00
2022-08-07T08:13:57.073Z,23776.00
2022-08-07T08:14:57.435Z,23744.00
2022-08-07T08:16:00.668Z,23648.00
2022-08-07T08:16:57.977Z,23616.00
2022-08-07T08:18:00.135Z,23584.00
2022-08-07T08:19:00.306Z,23584.00
2022-08-07T08:20:17.173Z,23584.00
2022-08-07T08:21:00.290Z,23520.00
2022-08-07T08:22:03.137Z,23456.00
2022-08-07T08:22:59.799Z,23424.00
2022-08-07T08:24:00.102Z,23424.00
2022-08-07T08:25:18.744Z,23456.00
2022-08-07T08:27:01.925Z,23328.00
2022-08-07T08:27:20.568Z,23392.00
2022-08-07T08:28:03.977Z,23264.00
2022-08-07T08:29:01.490Z,23168.00
2022-08-07T08:30:02.999Z,23040.00
2022-08-07T08:31:02.099Z,22944.00
2022-08-07T08:32:18.567Z,23008.00
2022-08-07T08:33:03.669Z,22848.00
2022-08-07T08:34:02.927Z,22688.00
2022-08-07T08:35:03.234Z,22592.00
2022-08-07T08:36:03.427Z,22208.00
2022-08-07T08:37:03.791Z,21888.00
2022-08-07T08:38:05.146Z,21632.00
2022-08-07T08:39:04.419Z,21216.00
2022-08-07T08:40:04.713Z,20736.00
2022-08-07T08:41:05.979Z,20288.00
2022-08-07T08:42:05.284Z,19616.00
2022-08-07T08:43:05.560Z,19008.00
2022-08-07T08:44:05.850Z,18368.00
2022-08-07T08:45:06.225Z,17888.00
2022-08-07T08:46:08.254Z,17472.00
2022-08-07T08:47:09.919Z,17280.00
2022-08-07T08:48:06.994Z,17120.00
2022-08-07T08:49:07.333Z,17184.00
2022-08-07T08:50:07.616Z,17184.00
2022-08-07T08:51:14.581Z,16768.00
2022-08-07T08:52:13.815Z,15776.00
2022-08-07T08:53:09.445Z,16544.00
2022-08-07T08:54:08.708Z,16704.00
2022-08-07T08:55:08.954Z,15328.00
2022-08-07T08:56:09.262Z,10220.00
2022-08-07T08:57:09.518Z,6372.00
2022-08-07T08:58:13.095Z,5564.00
2022-08-07T08:59:13.800Z,5180.00
2022-08-07T09:00:11.293Z,4936.00
2022-08-07T09:01:14.811Z,4732.00
2022-08-07T09:02:11.881Z,4632.00
2022-08-07T09:03:11.145Z,4600.00
2022-08-07T09:04:11.451Z,4580.00
2022-08-07T09:05:11.789Z,4564.00
2022-08-07T09:06:12.088Z,4544.00
2022-08-07T09:07:12.347Z,4504.00
2022-08-07T09:08:12.616Z,4472.00
2022-08-07T09:09:21.137Z,4448.00
2022-08-07T09:10:14.257Z,4412.00
2022-08-07T09:11:13.957Z,4372.00
2022-08-07T09:12:30.206Z,4336.00
2022-08-07T09:13:15.119Z,4272.00
2022-08-07T09:14:14.357Z,4264.00
2022-08-07T09:16:24.119Z,4176.00
2022-08-07T09:16:24.818Z,4208.00
2022-08-07T09:17:16.230Z,4160.00
2022-08-07T09:18:22.506Z,4120.00
2022-08-07T09:19:52.339Z,4084.00
2022-08-07T09:20:35.182Z,4064.00
2022-08-07T09:21:57.857Z,4028.00
2022-08-07T09:24:27.523Z,3984.00
2022-08-07T09:24:32.872Z,3956.00
2022-08-07T09:24:33.733Z,3968.00
2022-08-07T09:25:18.702Z,3928.00
2022-08-07T09:26:20.850Z,3908.00
2022-08-07T09:27:18.276Z,3896.00
2022-08-07T09:30:02.095Z,3872.00
2022-08-07T09:30:04.953Z,3852.00
2022-08-07T09:30:20.699Z,3824.00
2022-08-07T09:31:20.470Z,3812.00
2022-08-07T09:32:21.001Z,3796.00
2022-08-07T09:33:40.655Z,3776.00
2022-08-07T09:34:21.300Z,3752.00
2022-08-07T09:36:05.384Z,3732.00
2022-08-07T09:36:21.838Z,3708.00
2022-08-07T09:37:48.519Z,3684.00
2022-08-07T09:38:23.192Z,3672.00
2022-08-07T09:39:52.906Z,3648.00
2022-08-07T09:40:23.131Z,3624.00
2022-08-07T09:41:22.454Z,3604.00
2022-08-07T09:42:24.892Z,3584.00
2022-08-07T09:43:40.342Z,3564.00
2022-08-07T09:44:40.213Z,3552.00
2022-08-07T09:47:23.589Z,3540.00
2022-08-07T09:47:37.243Z,3512.00
2022-08-07T09:48:00.367Z,3492.00
2022-08-07T09:48:30.222Z,3480.00
2022-08-07T09:50:02.604Z,3460.00
2022-08-07T09:50:26.417Z,3444.00
2022-08-07T09:52:15.997Z,3428.00
2022-08-07T09:52:34.473Z,3416.00
2022-08-07T09:53:27.239Z,3400.00
2022-08-07T09:54:28.285Z,3384.00
2022-08-07T09:55:36.959Z,3372.00
2022-08-07T09:56:37.274Z,3360.00
2022-08-07T09:57:28.788Z,3344.00
2022-08-07T09:58:32.198Z,3336.00
2022-08-07T09:59:44.350Z,3324.00
2022-08-07T10:00:30.066Z,3308.00
2022-08-07T10:01:50.359Z,3300.00
2022-08-07T10:02:31.592Z,3284.00
2022-08-07T10:04:06.491Z,3292.00
2022-08-07T10:04:32.933Z,3264.00
2022-08-07T10:05:59.461Z,3252.00
2022-08-07T10:06:31.205Z,3244.00
2022-08-07T10:07:31.805Z,3236.00
2022-08-07T10:08:31.663Z,3216.00
2022-08-07T10:09:42.934Z,3204.00
2022-08-07T10:10:48.277Z,3188.00
2022-08-07T10:12:01.754Z,3176.00
2022-08-07T10:12:32.839Z,3172.00
2022-08-07T10:14:00.220Z,3160.00
2022-08-07T10:14:33.489Z,3144.00
2022-08-07T10:15:44.029Z,3128.00
2022-08-07T10:16:34.069Z,3128.00
2022-08-07T10:18:00.770Z,3120.00
2022-08-07T10:18:35.363Z,3112.00
2022-08-07T10:19:37.752Z,3104.00
2022-08-07T10:20:35.126Z,3084.00
2022-08-07T10:22:15.134Z,3088.00
2022-08-07T10:22:36.632Z,3076.00
2022-08-07T10:24:05.847Z,3064.00
2022-08-07T10:24:38.209Z,3056.00
2022-08-07T10:25:43.257Z,3020.00
2022-08-07T10:26:36.715Z,3048.00
2022-08-07T10:27:46.646Z,3036.00
2022-08-07T10:28:37.235Z,3028.00
2022-08-07T10:29:40.423Z,3020.00
2022-08-07T10:30:37.775Z,3016.00
2022-08-07T10:31:38.491Z,3004.00
2022-08-07T10:32:52.381Z,2996.00
2022-08-07T10:34:06.718Z,2988.00
2022-08-07T10:34:38.906Z,2980.00
2022-08-07T10:35:55.593Z,2972.00
2022-08-07T10:36:39.437Z,2964.00
2022-08-07T10:38:00.639Z,2960.00
2022-08-07T10:38:48.197Z,2948.00
2022-08-07T10:39:41.447Z,2940.00
2022-08-07T10:40:39.641Z,2932.00
2022-08-07T10:41:46.633Z,2928.00
2022-08-07T10:42:41.097Z,2920.00
2022-08-07T10:43:40.396Z,2912.00
2022-08-07T10:44:40.585Z,2904.00
2022-08-07T10:45:44.944Z,2900.00
2022-08-07T10:46:42.087Z,2888.00
2022-08-07T10:47:53.606Z,2888.00
2022-08-07T10:48:44.182Z,2876.00
2022-08-07T10:49:49.307Z,2872.00
2022-08-07T10:50:49.925Z,2864.00
2022-08-07T10:52:02.248Z,2860.00
2022-08-07T10:52:48.623Z,2848.00
2022-08-07T10:53:44.887Z,2840.00
2022-08-07T10:54:53.358Z,2844.00
2022-08-07T10:55:44.607Z,2828.00
2022-08-07T10:56:43.861Z,2824.00
2022-08-07T10:57:44.090Z,2816.00
2022-08-07T10:58:46.209Z,2812.00
2022-08-07T10:59:47.326Z,2804.00
2022-08-07T11:00:50.588Z,2792.00
2022-08-07T11:01:52.049Z,2784.00
2022-08-07T11:02:49.460Z,1604.00
2022-08-07T11:03:52.560Z,2780.00
2022-08-07T11:04:47.184Z,2776.00
2022-08-07T11:05:50.789Z,2772.00
2022-08-07T11:06:46.770Z,2764.00
2022-08-07T11:07:58.507Z,2760.00
2022-08-07T11:08:48.317Z,2756.00
2022-08-07T11:10:09.642Z,2744.00
2022-08-07T11:12:03.825Z,2736.00
2022-08-07T11:13:04.066Z,2724.00
2022-08-07T11:14:45.535Z,2716.00
2022-08-07T11:15:09.657Z,2704.00
2022-08-07T11:16:07.165Z,2696.00
2022-08-07T11:17:07.340Z,2692.00
2022-08-07T11:18:05.410Z,2680.00
2022-08-07T11:19:06.943Z,2676.00
2022-08-07T11:20:05.865Z,2668.00
2022-08-07T11:21:06.167Z,2664.00
2022-08-07T11:22:06.406Z,2656.00
2022-08-07T11:23:09.149Z,2648.00
2022-08-07T11:24:08.505Z,2640.00
2022-08-07T11:25:07.425Z,2632.00
2022-08-07T11:26:07.516Z,2624.00
2022-08-07T11:27:07.847Z,2620.00
2022-08-07T11:28:09.239Z,2612.00
2022-08-07T11:29:13.110Z,2608.00
2022-08-07T11:30:18.770Z,2596.00
2022-08-07T11:31:11.635Z,2588.00
2022-08-07T11:32:09.330Z,2584.00
2022-08-07T11:33:14.309Z,2580.00
2022-08-07T11:34:10.942Z,2576.00
2022-08-07T11:35:10.091Z,2572.00
2022-08-07T11:36:10.313Z,2564.00
2022-08-07T11:37:11.660Z,2560.00
2022-08-07T11:38:12.719Z,2552.00
2022-08-07T11:39:14.627Z,2544.00
2022-08-07T11:40:12.492Z,2536.00
2022-08-07T11:41:22.269Z,2528.00
2022-08-07T11:42:16.852Z,2520.00
2022-08-07T11:43:15.551Z,2520.00
2022-08-07T11:44:14.367Z,2512.00
2022-08-07T11:45:14.001Z,2504.00
2022-08-07T11:46:13.252Z,2500.00
2022-08-07T11:47:13.523Z,2492.00
2022-08-07T11:48:26.730Z,2488.00
2022-08-07T11:49:50.658Z,2484.00
2022-08-07T11:50:31.263Z,2480.00
2022-08-07T11:51:41.575Z,2468.00
2022-08-07T11:52:16.072Z,2464.00
2022-08-07T11:53:15.363Z,2456.00
2022-08-07T11:54:15.662Z,2452.00
2022-08-07T11:56:09.619Z,2448.00
2022-08-07T11:56:26.366Z,2444.00
2022-08-07T11:57:17.507Z,2432.00
2022-08-07T11:58:16.761Z,2424.00
2022-08-07T12:00:08.966Z,2420.00
2022-08-07T12:00:19.700Z,2408.00
2022-08-07T12:01:20.311Z,2404.00
2022-08-07T12:02:29.945Z,2396.00
2022-08-07T12:03:45.142Z,2388.00
2022-08-07T12:04:19.483Z,2384.00
2022-08-07T12:05:28.689Z,2376.00
2022-08-07T12:06:36.944Z,2376.00
2022-08-07T12:07:26.989Z,2368.00
2022-08-07T12:08:31.515Z,2364.00
2022-08-07T12:09:23.748Z,2360.00
2022-08-07T12:10:20.274Z,2356.00
2022-08-07T12:11:22.442Z,2352.00
2022-08-07T12:12:20.908Z,2352.00
2022-08-07T12:13:35.648Z,2340.00
2022-08-07T12:14:22.465Z,2344.00
2022-08-07T12:15:35.771Z,2336.00
2022-08-07T12:16:30.688Z,2332.00
2022-08-07T12:17:23.311Z,2336.00
2022-08-07T12:18:29.933Z,2324.00
2022-08-07T12:19:23.830Z,2308.00
2022-08-07T12:20:30.648Z,2320.00
2022-08-07T12:22:36.004Z,2320.00
2022-08-07T12:22:37.446Z,2312.00
2022-08-07T12:24:05.781Z,2312.00
2022-08-07T12:24:37.898Z,2308.00
2022-08-07T12:26:21.371Z,2304.00
2022-08-07T12:26:29.819Z,2304.00
2022-08-07T12:27:28.019Z,2296.00
2022-08-07T12:28:31.050Z,2292.00
2022-08-07T12:29:37.570Z,2288.00
2022-08-07T12:30:27.278Z,2284.00
2022-08-07T12:31:26.508Z,2284.00
2022-08-07T12:32:27.817Z,2280.00
2022-08-07T12:33:31.010Z,2276.00
2022-08-07T12:34:28.328Z,2276.00
2022-08-07T12:35:29.384Z,2268.00
2022-08-07T12:36:33.471Z,2268.00
2022-08-07T12:38:09.150Z,2268.00
2022-08-07T12:38:42.774Z,2264.00
2022-08-07T12:39:43.001Z,2264.00
2022-08-07T12:40:47.183Z,2260.00
2022-08-07T12:41:49.275Z,2260.00
2022-08-07T12:42:32.194Z,2260.00
2022-08-07T12:44:01.935Z,2256.00
2022-08-07T12:44:31.356Z,2248.00
2022-08-07T12:45:30.653Z,2248.00
2022-08-07T12:46:32.371Z,2224.00
2022-08-07T12:47:31.838Z,2216.00
2022-08-07T12:48:41.673Z,2224.00
2022-08-07T12:49:44.254Z,2220.00
2022-08-07T12:50:39.674Z,2216.00
2022-08-07T12:51:51.534Z,2208.00
2022-08-07T12:52:34.083Z,2208.00
2022-08-07T12:54:03.103Z,2200.00
2022-08-07T12:54:37.951Z,2196.00
2022-08-07T12:55:41.132Z,2204.00
2022-08-07T12:56:34.998Z,2200.00
2022-08-07T12:58:01.202Z,2196.00
2022-08-07T12:58:35.695Z,2188.00
2022-08-07T12:59:55.526Z,2188.00
2022-08-07T13:00:49.674Z,2184.00
2022-08-07T13:01:36.444Z,2180.00
2022-08-07T13:02:35.752Z,2176.00
2022-08-07T13:03:59.276Z,2168.00
2022-08-07T13:04:37.218Z,2168.00
2022-08-07T13:06:03.481Z,2156.00
2022-08-07T13:06:54.295Z,2156.00
2022-08-07T13:08:12.331Z,2160.00
2022-08-07T13:08:38.317Z,2156.00
2022-08-07T13:10:21.532Z,2152.00
2022-08-07T13:10:44.020Z,2156.00
2022-08-07T13:12:03.575Z,2152.00
2022-08-07T13:12:39.486Z,2144.00
2022-08-07T13:13:48.734Z,2148.00
2022-08-07T13:14:50.847Z,2140.00
2022-08-07T13:15:40.407Z,2140.00
2022-08-07T13:16:39.628Z,2136.00
2022-08-07T13:17:41.123Z,2132.00
2022-08-07T13:18:40.220Z,2128.00
2022-08-07T13:19:50.426Z,2128.00
2022-08-07T13:20:41.758Z,2128.00
2022-08-07T13:21:55.052Z,2120.00
2022-08-07T13:22:42.318Z,2120.00
2022-08-07T13:24:00.711Z,2120.00
2022-08-07T13:24:43.978Z,2112.00
2022-08-07T13:25:43.147Z,2108.00
2022-08-07T13:26:46.321Z,2108.00
2022-08-07T13:28:10.951Z,2104.00
2022-08-07T13:28:44.058Z,2100.00
2022-08-07T13:29:46.977Z,2100.00
2022-08-07T13:30:48.672Z,2096.00
2022-08-07T13:31:55.018Z,2096.00
2022-08-07T13:32:45.148Z,2092.00
2022-08-07T13:34:32.032Z,2092.00
2022-08-07T13:34:48.574Z,2088.00
2022-08-07T13:36:01.317Z,2084.00
2022-08-07T13:36:46.319Z,2080.00
2022-08-07T13:37:59.113Z,2080.00
2022-08-07T13:38:47.002Z,2080.00
2022-08-07T13:40:32.779Z,2068.00
2022-08-07T13:40:47.450Z,2072.00
2022-08-07T13:41:48.004Z,2064.00
2022-08-07T13:42:47.040Z,2060.00
2022-08-07T13:43:52.730Z,2056.00
2022-08-07T13:45:20.488Z,2040.00
2022-08-07T13:46:11.893Z,2040.00
2022-08-07T13:46:50.140Z,2044.00
2022-08-07T13:48:06.854Z,2044.00
2022-08-07T13:48:58.297Z,2036.00
2022-08-07T13:50:34.508Z,2040.00
2022-08-07T13:51:01.286Z,2032.00
2022-08-07T13:52:05.565Z,2032.00
2022-08-07T13:52:51.155Z,2032.00
2022-08-07T13:53:59.838Z,2028.00
2022-08-07T13:54:51.682Z,2024.00
2022-08-07T13:55:54.748Z,2020.00
2022-08-07T13:56:55.648Z,2016.00
2022-08-07T13:58:02.155Z,2020.00
2022-08-07T13:58:56.343Z,2016.00
2022-08-07T13:59:55.027Z,2016.00
2022-08-07T14:00:54.584Z,2008.00
2022-08-07T14:02:04.178Z,2004.00
2022-08-07T14:02:54.420Z,2000.00
2022-08-07T14:04:07.097Z,2000.00
2022-08-07T14:04:55.119Z,1996.00
2022-08-07T14:05:53.798Z,1992.00
2022-08-07T14:06:54.086Z,1984.00
2022-08-07T14:08:00.667Z,1984.00
2022-08-07T14:08:55.592Z,1984.00
2022-08-07T14:10:12.469Z,1984.00
2022-08-07T14:11:01.697Z,1984.00
2022-08-07T14:12:01.190Z,1972.00
2022-08-07T14:12:56.786Z,1976.00
2022-08-07T14:13:56.048Z,1972.00
2022-08-07T14:14:56.255Z,1972.00
2022-08-07T14:15:56.987Z,1968.00
2022-08-07T14:16:56.806Z,1968.00
2022-08-07T14:18:27.317Z,1964.00
2022-08-07T14:18:58.447Z,1960.00
2022-08-07T14:20:41.648Z,1960.00
2022-08-07T14:20:58.953Z,1960.00
2022-08-07T14:22:02.933Z,1960.00
2022-08-07T14:22:59.620Z,1952.00
2022-08-07T14:24:01.969Z,1956.00
2022-08-07T14:24:59.241Z,1956.00
2022-08-07T14:25:59.417Z,1952.00
2022-08-07T14:26:59.759Z,1948.00
2022-08-07T14:28:12.494Z,1948.00
2022-08-07T14:29:08.460Z,1944.00
2022-08-07T14:30:07.579Z,1940.00
2022-08-07T14:31:02.565Z,1940.00
2022-08-07T14:32:01.322Z,1940.00
2022-08-07T14:33:01.576Z,1940.00
2022-08-07T14:34:45.910Z,1936.00
2022-08-07T14:35:03.882Z,1936.00
2022-08-07T14:36:05.078Z,1932.00
2022-08-07T14:37:03.272Z,1932.00
2022-08-07T14:38:05.903Z,1932.00
2022-08-07T14:39:03.432Z,1928.00
2022-08-07T14:41:04.910Z,1924.00
2022-08-07T14:42:18.888Z,1928.00
2022-08-07T14:43:58.340Z,1924.00
2022-08-07T14:44:11.592Z,1924.00
2022-08-07T14:45:21.183Z,1924.00
2022-08-07T14:46:06.292Z,1912.00
2022-08-07T14:48:06.830Z,1920.00
2022-08-07T14:49:17.332Z,1920.00
2022-08-07T14:51:16.047Z,1916.00
2022-08-07T14:52:10.616Z,1916.00
2022-08-07T14:53:08.157Z,1916.00
2022-08-07T14:55:08.913Z,1900.00
2022-08-07T14:56:08.138Z,1904.00
2022-08-07T14:57:09.415Z,1908.00
2022-08-07T14:58:09.748Z,1900.00
2022-08-07T14:59:13.794Z,1900.00
2022-08-07T15:00:10.374Z,1896.00
2022-08-07T15:02:31.452Z,1892.00
2022-08-07T15:03:16.394Z,1888.00
2022-08-07T15:04:11.565Z,1880.00
2022-08-07T15:05:20.331Z,1880.00
2022-08-07T15:06:12.138Z,1884.00
2022-08-07T15:07:17.624Z,1884.00
2022-08-07T15:08:12.710Z,1880.00
2022-08-07T15:09:57.782Z,1876.00
2022-08-07T15:10:13.250Z,1876.00
2022-08-07T15:11:15.089Z,1876.00
2022-08-07T15:13:14.219Z,1872.00
2022-08-07T15:14:13.480Z,1872.00
2022-08-07T15:15:21.490Z,1872.00
2022-08-07T15:16:19.808Z,1872.00
2022-08-07T15:17:16.805Z,1868.00
2022-08-07T15:18:28.404Z,1868.00
2022-08-07T15:20:32.778Z,1868.00
2022-08-07T15:21:58.740Z,1868.00
2022-08-07T15:22:29.246Z,1868.00
2022-08-07T15:25:19.233Z,1868.00
2022-08-07T15:26:21.075Z,1872.00
2022-08-07T15:27:17.274Z,1868.00
2022-08-07T15:28:34.317Z,1864.00
2022-08-07T15:30:09.276Z,1860.00
2022-08-07T15:30:19.064Z,1864.00
2022-08-07T15:32:00.821Z,1856.00
2022-08-07T15:32:40.026Z,1860.00
2022-08-07T15:33:20.241Z,1856.00
2022-08-07T15:34:19.212Z,1852.00
2022-08-07T15:35:19.503Z,1852.00
2022-08-07T15:36:57.481Z,1852.00
2022-08-07T15:37:27.695Z,1848.00
2022-08-07T15:38:30.910Z,1848.00
2022-08-07T15:39:21.642Z,1844.00
2022-08-07T15:40:20.937Z,1840.00
2022-08-07T15:42:46.508Z,1836.00
2022-08-07T15:43:53.069Z,1836.00
2022-08-07T15:44:23.698Z,1836.00
2022-08-07T15:45:22.469Z,1832.00
2022-08-07T15:46:31.728Z,1828.00
2022-08-07T15:48:01.365Z,1832.00
2022-08-07T15:48:25.786Z,1828.00
2022-08-07T15:49:25.582Z,1828.00
2022-08-07T15:52:30.081Z,1820.00
2022-08-07T15:53:25.878Z,1812.00
2022-08-07T15:54:26.388Z,1816.00
2022-08-07T15:56:01.817Z,1816.00
2022-08-07T15:56:26.822Z,1812.00
2022-08-07T15:57:39.296Z,1812.00
2022-08-07T15:58:32.505Z,1804.00
2022-08-07T15:59:39.584Z,1808.00
2022-08-07T16:00:31.864Z,1796.00
2022-08-07T16:01:38.609Z,1800.00
2022-08-07T16:02:29.020Z,1804.00
2022-08-07T16:03:46.255Z,1796.00
2022-08-07T16:04:29.304Z,1800.00
2022-08-07T16:05:31.181Z,1796.00
2022-08-07T16:06:28.814Z,1792.00
2022-08-07T16:08:29.113Z,1796.00
2022-08-07T16:08:38.160Z,1788.00
2022-08-07T16:09:41.052Z,1788.00
2022-08-07T16:10:31.011Z,1784.00
2022-08-07T16:11:30.245Z,1780.00
2022-08-07T16:12:30.522Z,1780.00
2022-08-07T16:13:57.571Z,1772.00
2022-08-07T16:14:32.032Z,1776.00
2022-08-07T16:15:55.146Z,1772.00
2022-08-07T16:16:47.642Z,1764.00
2022-08-07T16:18:02.700Z,1764.00
2022-08-07T16:18:50.361Z,1760.00
2022-08-07T16:19:42.613Z,1756.00
2022-08-07T16:20:34.753Z,1756.00
2022-08-07T16:22:01.814Z,1752.00
2022-08-07T16:22:36.434Z,1752.00
2022-08-07T16:23:54.701Z,1752.00
2022-08-07T16:24:35.631Z,1748.00
2022-08-07T16:25:52.397Z,1748.00
2022-08-07T16:26:35.422Z,1744.00
2022-08-07T16:27:39.931Z,1740.00
2022-08-07T16:30:08.573Z,1736.00
2022-08-07T16:30:10.898Z,1736.00
2022-08-07T16:30:36.519Z,1732.00
2022-08-07T16:31:51.183Z,1732.00
2022-08-07T16:32:37.302Z,1728.00
2022-08-07T16:34:03.295Z,1724.00
2022-08-07T16:34:37.718Z,1724.00
2022-08-07T16:35:56.522Z,1724.00
2022-08-07T16:37:02.737Z,1720.00
2022-08-07T16:38:05.572Z,1712.00
2022-08-07T16:39:00.727Z,1712.00
2022-08-07T16:39:49.176Z,1708.00
2022-08-07T16:40:57.118Z,1708.00
2022-08-07T16:41:41.807Z,1704.00
2022-08-07T16:42:40.150Z,1704.00
2022-08-07T16:44:03.953Z,1700.00
2022-08-07T16:45:13.977Z,1696.00
2022-08-07T16:46:34.710Z,1696.00
2022-08-07T16:47:04.744Z,1688.00
2022-08-07T16:47:56.818Z,1680.00
2022-08-07T16:48:53.587Z,1672.00
2022-08-07T16:50:20.118Z,1680.00
2022-08-07T16:51:13.397Z,1672.00
2022-08-07T16:52:01.789Z,1672.00
2022-08-07T16:52:51.965Z,1668.00
2022-08-07T16:54:02.907Z,1664.00
2022-08-07T16:54:54.429Z,1660.00
2022-08-07T16:55:47.844Z,1660.00
2022-08-07T16:56:43.491Z,1652.00
2022-08-07T16:58:02.016Z,1644.00
2022-08-07T16:59:10.026Z,1640.00
2022-08-07T16:59:46.659Z,1632.00
2022-08-07T17:00:44.541Z,1628.00
2022-08-07T17:01:44.909Z,1624.00
2022-08-07T17:02:53.691Z,1624.00
2022-08-07T17:03:59.816Z,1624.00
2022-08-07T17:04:57.515Z,1608.00
2022-08-07T17:06:28.828Z,1604.00
2022-08-07T17:06:57.896Z,1604.00
2022-08-07T17:07:55.345Z,1600.00
2022-08-07T17:10:05.114Z,1572.00
2022-08-07T17:10:54.829Z,1588.00
2022-08-07T17:12:01.322Z,1580.00
2022-08-07T17:12:53.006Z,1576.00
2022-08-07T17:14:17.987Z,1568.00
2022-08-07T17:14:49.801Z,1572.00
2022-08-07T17:15:50.529Z,1564.00
2022-08-07T17:16:56.012Z,1544.00
2022-08-07T17:17:50.627Z,1540.00
2022-08-07T17:18:49.886Z,1528.00
2022-08-07T17:20:02.033Z,1508.00
2022-08-07T17:20:54.784Z,1492.00
2022-08-07T17:21:52.208Z,1468.00
2022-08-07T17:22:51.078Z,1444.00
2022-08-07T17:23:51.412Z,1424.00
2022-08-07T17:24:52.129Z,1424.00
2022-08-07T17:25:52.674Z,1420.00
2022-08-07T17:26:52.256Z,1392.00
2022-08-07T21:55:29.817Z,0.00
2022-08-07T21:56:37.772Z,0.00
2022-08-07T21:57:31.175Z,0.00
2022-08-07T21:58:22.151Z,0.00
2022-08-07T21:59:18.605Z,0.00
2022-08-07T22:00:22.988Z,0.00
2022-08-07T22:01:19.057Z,0.00
2022-08-07T22:02:18.379Z,0.00
2022-08-07T22:03:18.863Z,0.00
2022-08-07T22:04:20.241Z,0.00
2022-08-07T22:05:21.823Z,0.00
2022-08-07T22:06:30.796Z,0.00
2022-08-07T22:07:20.767Z,0.00
2022-08-07T22:08:20.170Z,0.00
2022-08-07T22:09:20.347Z,0.00
2022-08-07T22:11:22.029Z,0.00
2022-08-07T22:12:24.571Z,0.00
2022-08-07T22:13:24.643Z,0.00
2022-08-07T22:14:36.138Z,0.00
2022-08-07T22:16:43.805Z,0.00
2022-08-07T22:16:43.852Z,0.00
2022-08-07T22:17:24.632Z,0.00
2022-08-07T22:18:24.903Z,0.00
2022-08-07T22:19:29.669Z,0.00
2022-08-07T22:20:25.467Z,0.00
2022-08-07T22:21:24.796Z,0.00
2022-08-07T22:22:28.902Z,0.00
2022-08-07T22:23:25.284Z,0.00
2022-08-07T22:24:32.957Z,0.00
2022-08-07T22:25:27.078Z,0.00
2022-08-07T22:26:26.137Z,0.00
2022-08-07T22:27:56.299Z,0.00
2022-08-07T22:28:31.881Z,0.00
2022-08-07T22:29:37.971Z,0.00
2022-08-07T22:30:28.253Z,0.00
2022-08-07T22:31:45.685Z,0.00
2022-08-07T22:32:28.823Z,0.00
2022-08-07T22:33:52.598Z,0.00
2022-08-07T22:34:31.792Z,0.00
2022-08-07T22:35:39.743Z,0.00